sensor_id;sensor_type;location;lat;lon;timestamp;P1;durP1;ratioP1;P2;durP2;ratioP2
25721;SDS011;13578;53.450;15.496;2023-11-19T00:02:48;50.83;;;25.38;;
25721;SDS011;13578;53.450;15.496;2023-11-19T00:05:49;45.08;;;23.23;;
25721;SDS011;13578;53.450;15.496;2023-11-19T00:08:50;45.40;;;24.52;;
25721;SDS011;13578;53.450;15.496;2023-11-19T00:11:51;36.53;;;21.52;;
25721;SDS011;13578;53.450;15.496;2023-11-19T00:14:52;51.13;;;23.67;;
25721;SDS011;13578;53.450;15.496;2023-11-19T00:17:53;37.03;;;22.88;;
25721;SDS011;13578;53.450;15.496;2023-11-19T00:20:53;39.92;;;22.20;;
25721;SDS011;13578;53.450;15.496;2023-11-19T00:23:54;46.35;;;22.27;;
25721;SDS011;13578;53.450;15.496;2023-11-19T00:26:54;43.22;;;21.55;;
25721;SDS011;13578;53.450;15.496;2023-11-19T00:29:55;35.40;;;21.40;;
25721;SDS011;13578;53.450;15.496;2023-11-19T00:32:56;42.42;;;21.98;;
25721;SDS011;13578;53.450;15.496;2023-11-19T00:35:57;44.97;;;22.83;;
25721;SDS011;13578;53.450;15.496;2023-11-19T00:38:57;35.05;;;21.95;;
25721;SDS011;13578;53.450;15.496;2023-11-19T00:41:58;42.28;;;22.90;;
25721;SDS011;13578;53.450;15.496;2023-11-19T00:44:59;40.90;;;23.10;;
25721;SDS011;13578;53.450;15.496;2023-11-19T00:48:01;39.95;;;22.80;;
25721;SDS011;13578;53.450;15.496;2023-11-19T00:51:02;47.28;;;24.20;;
25721;SDS011;13578;53.450;15.496;2023-11-19T00:54:04;44.35;;;24.83;;
25721;SDS011;13578;53.450;15.496;2023-11-19T00:57:05;52.70;;;26.35;;
25721;SDS011;13578;53.450;15.496;2023-11-19T01:00:06;49.30;;;25.55;;
25721;SDS011;13578;53.450;15.496;2023-11-19T01:03:33;45.65;;;25.58;;
25721;SDS011;13578;53.450;15.496;2023-11-19T01:06:34;51.80;;;26.55;;
25721;SDS011;13578;53.450;15.496;2023-11-19T01:09:34;54.33;;;26.95;;
25721;SDS011;13578;53.450;15.496;2023-11-19T01:12:35;54.08;;;27.23;;
25721;SDS011;13578;53.450;15.496;2023-11-19T01:15:36;60.55;;;28.40;;
25721;SDS011;13578;53.450;15.496;2023-11-19T01:18:37;56.60;;;30.30;;
25721;SDS011;13578;53.450;15.496;2023-11-19T01:21:37;55.40;;;26.80;;
25721;SDS011;13578;53.450;15.496;2023-11-19T01:24:38;55.40;;;28.58;;
25721;SDS011;13578;53.450;15.496;2023-11-19T01:27:38;56.00;;;28.25;;
25721;SDS011;13578;53.450;15.496;2023-11-19T01:30:39;51.53;;;27.70;;
25721;SDS011;13578;53.450;15.496;2023-11-19T01:33:41;59.70;;;27.25;;
25721;SDS011;13578;53.450;15.496;2023-11-19T01:36:41;51.97;;;27.15;;
25721;SDS011;13578;53.450;15.496;2023-11-19T01:39:45;53.55;;;27.25;;
25721;SDS011;13578;53.450;15.496;2023-11-19T01:42:46;50.58;;;26.40;;
25721;SDS011;13578;53.450;15.496;2023-11-19T01:45:46;65.05;;;28.13;;
25721;SDS011;13578;53.450;15.496;2023-11-19T01:48:47;65.28;;;29.58;;
25721;SDS011;13578;53.450;15.496;2023-11-19T01:51:48;57.45;;;26.90;;
25721;SDS011;13578;53.450;15.496;2023-11-19T01:54:49;54.33;;;27.42;;
25721;SDS011;13578;53.450;15.496;2023-11-19T01:57:52;53.08;;;28.27;;
25721;SDS011;13578;53.450;15.496;2023-11-19T02:00:54;64.72;;;31.38;;
25721;SDS011;13578;53.450;15.496;2023-11-19T02:03:55;51.97;;;27.70;;
25721;SDS011;13578;53.450;15.496;2023-11-19T02:06:58;61.60;;;26.90;;
25721;SDS011;13578;53.450;15.496;2023-11-19T02:09:59;52.72;;;27.10;;
25721;SDS011;13578;53.450;15.496;2023-11-19T02:13:02;53.92;;;26.98;;
25721;SDS011;13578;53.450;15.496;2023-11-19T02:16:05;55.75;;;28.20;;
25721;SDS011;13578;53.450;15.496;2023-11-19T02:19:07;54.15;;;29.02;;
25721;SDS011;13578;53.450;15.496;2023-11-19T02:22:09;55.50;;;28.48;;
25721;SDS011;13578;53.450;15.496;2023-11-19T02:25:12;55.35;;;28.92;;
25721;SDS011;13578;53.450;15.496;2023-11-19T02:28:19;50.83;;;26.00;;
25721;SDS011;13578;53.450;15.496;2023-11-19T02:31:20;47.22;;;25.50;;
25721;SDS011;13578;53.450;15.496;2023-11-19T02:34:23;45.67;;;25.30;;
25721;SDS011;13578;53.450;15.496;2023-11-19T02:37:23;51.40;;;25.17;;
25721;SDS011;13578;53.450;15.496;2023-11-19T02:40:24;50.45;;;25.63;;
25721;SDS011;13578;53.450;15.496;2023-11-19T02:43:25;46.30;;;25.40;;
25721;SDS011;13578;53.450;15.496;2023-11-19T02:46:25;44.33;;;23.77;;
25721;SDS011;13578;53.450;15.496;2023-11-19T02:49:26;47.78;;;25.98;;
25721;SDS011;13578;53.450;15.496;2023-11-19T02:52:27;49.42;;;24.67;;
25721;SDS011;13578;53.450;15.496;2023-11-19T02:55:28;49.20;;;25.40;;
25721;SDS011;13578;53.450;15.496;2023-11-19T02:58:34;46.25;;;25.05;;
25721;SDS011;13578;53.450;15.496;2023-11-19T03:01:34;46.45;;;25.35;;
25721;SDS011;13578;53.450;15.496;2023-11-19T03:04:36;55.97;;;27.15;;
25721;SDS011;13578;53.450;15.496;2023-11-19T03:07:38;44.03;;;25.42;;
25721;SDS011;13578;53.450;15.496;2023-11-19T03:10:39;45.28;;;24.50;;
25721;SDS011;13578;53.450;15.496;2023-11-19T03:13:39;45.90;;;25.15;;
25721;SDS011;13578;53.450;15.496;2023-11-19T03:16:40;51.05;;;26.50;;
25721;SDS011;13578;53.450;15.496;2023-11-19T03:19:41;51.30;;;25.17;;
25721;SDS011;13578;53.450;15.496;2023-11-19T03:22:41;42.25;;;25.13;;
25721;SDS011;13578;53.450;15.496;2023-11-19T03:25:42;45.08;;;24.17;;
25721;SDS011;13578;53.450;15.496;2023-11-19T03:28:43;44.08;;;22.77;;
25721;SDS011;13578;53.450;15.496;2023-11-19T03:31:44;42.20;;;23.58;;
25721;SDS011;13578;53.450;15.496;2023-11-19T03:34:45;40.90;;;23.33;;
25721;SDS011;13578;53.450;15.496;2023-11-19T03:37:45;37.10;;;21.27;;
25721;SDS011;13578;53.450;15.496;2023-11-19T03:40:46;42.25;;;23.13;;
25721;SDS011;13578;53.450;15.496;2023-11-19T03:43:47;37.83;;;22.80;;
25721;SDS011;13578;53.450;15.496;2023-11-19T03:46:48;44.28;;;22.02;;
25721;SDS011;13578;53.450;15.496;2023-11-19T03:49:49;43.33;;;22.52;;
25721;SDS011;13578;53.450;15.496;2023-11-19T03:52:50;46.10;;;23.10;;
25721;SDS011;13578;53.450;15.496;2023-11-19T03:55:51;41.58;;;23.65;;
25721;SDS011;13578;53.450;15.496;2023-11-19T03:58:52;47.33;;;24.45;;
25721;SDS011;13578;53.450;15.496;2023-11-19T04:01:53;39.53;;;22.80;;
25721;SDS011;13578;53.450;15.496;2023-11-19T04:04:54;45.58;;;23.70;;
25721;SDS011;13578;53.450;15.496;2023-11-19T04:07:55;40.03;;;22.40;;
25721;SDS011;13578;53.450;15.496;2023-11-19T04:10:56;46.72;;;23.90;;
25721;SDS011;13578;53.450;15.496;2023-11-19T04:13:57;39.20;;;22.70;;
25721;SDS011;13578;53.450;15.496;2023-11-19T04:16:57;43.22;;;23.23;;
25721;SDS011;13578;53.450;15.496;2023-11-19T04:19:58;44.50;;;22.52;;
25721;SDS011;13578;53.450;15.496;2023-11-19T04:22:59;40.28;;;22.52;;
25721;SDS011;13578;53.450;15.496;2023-11-19T04:26:04;40.67;;;22.75;;
25721;SDS011;13578;53.450;15.496;2023-11-19T04:29:04;38.90;;;22.05;;
25721;SDS011;13578;53.450;15.496;2023-11-19T04:32:06;40.80;;;22.58;;
25721;SDS011;13578;53.450;15.496;2023-11-19T04:35:08;41.80;;;22.65;;
25721;SDS011;13578;53.450;15.496;2023-11-19T04:38:09;41.28;;;23.33;;
25721;SDS011;13578;53.450;15.496;2023-11-19T04:41:10;42.55;;;24.95;;
25721;SDS011;13578;53.450;15.496;2023-11-19T04:44:11;36.25;;;22.30;;
25721;SDS011;13578;53.450;15.496;2023-11-19T04:47:12;38.90;;;21.75;;
25721;SDS011;13578;53.450;15.496;2023-11-19T04:50:12;43.45;;;22.70;;
25721;SDS011;13578;53.450;15.496;2023-11-19T04:53:13;42.45;;;22.45;;
25721;SDS011;13578;53.450;15.496;2023-11-19T04:56:16;46.03;;;23.45;;
25721;SDS011;13578;53.450;15.496;2023-11-19T04:59:19;38.40;;;23.02;;
25721;SDS011;13578;53.450;15.496;2023-11-19T05:02:20;44.72;;;23.70;;
25721;SDS011;13578;53.450;15.496;2023-11-19T05:05:21;44.42;;;24.25;;
25721;SDS011;13578;53.450;15.496;2023-11-19T05:08:21;42.72;;;23.20;;
25721;SDS011;13578;53.450;15.496;2023-11-19T05:11:22;43.88;;;22.40;;
25721;SDS011;13578;53.450;15.496;2023-11-19T05:14:23;42.92;;;22.98;;
25721;SDS011;13578;53.450;15.496;2023-11-19T05:17:24;39.05;;;22.25;;
25721;SDS011;13578;53.450;15.496;2023-11-19T05:20:25;42.30;;;24.00;;
25721;SDS011;13578;53.450;15.496;2023-11-19T05:23:26;45.38;;;22.45;;
25721;SDS011;13578;53.450;15.496;2023-11-19T05:26:26;39.25;;;22.85;;
25721;SDS011;13578;53.450;15.496;2023-11-19T05:29:27;49.13;;;22.60;;
25721;SDS011;13578;53.450;15.496;2023-11-19T05:32:28;37.25;;;22.80;;
25721;SDS011;13578;53.450;15.496;2023-11-19T05:35:29;45.75;;;22.80;;
25721;SDS011;13578;53.450;15.496;2023-11-19T05:38:29;40.30;;;22.30;;
25721;SDS011;13578;53.450;15.496;2023-11-19T05:41:30;45.75;;;23.88;;
25721;SDS011;13578;53.450;15.496;2023-11-19T05:44:31;44.70;;;22.52;;
25721;SDS011;13578;53.450;15.496;2023-11-19T05:47:32;39.50;;;21.23;;
25721;SDS011;13578;53.450;15.496;2023-11-19T05:50:32;38.63;;;21.33;;
25721;SDS011;13578;53.450;15.496;2023-11-19T05:53:33;43.60;;;22.55;;
25721;SDS011;13578;53.450;15.496;2023-11-19T05:56:34;42.90;;;22.15;;
25721;SDS011;13578;53.450;15.496;2023-11-19T05:59:35;38.22;;;21.40;;
25721;SDS011;13578;53.450;15.496;2023-11-19T06:02:36;40.63;;;22.08;;
25721;SDS011;13578;53.450;15.496;2023-11-19T06:05:38;34.50;;;21.15;;
25721;SDS011;13578;53.450;15.496;2023-11-19T06:08:39;38.05;;;21.20;;
25721;SDS011;13578;53.450;15.496;2023-11-19T06:11:39;37.58;;;21.05;;
25721;SDS011;13578;53.450;15.496;2023-11-19T06:14:40;38.00;;;21.10;;
25721;SDS011;13578;53.450;15.496;2023-11-19T06:17:41;35.63;;;21.95;;
25721;SDS011;13578;53.450;15.496;2023-11-19T06:20:41;33.22;;;20.08;;
25721;SDS011;13578;53.450;15.496;2023-11-19T06:23:43;32.00;;;19.67;;
25721;SDS011;13578;53.450;15.496;2023-11-19T06:26:44;40.13;;;21.20;;
25721;SDS011;13578;53.450;15.496;2023-11-19T06:29:45;35.47;;;19.75;;
25721;SDS011;13578;53.450;15.496;2023-11-19T06:32:45;35.75;;;21.33;;
25721;SDS011;13578;53.450;15.496;2023-11-19T06:35:47;32.75;;;19.63;;
25721;SDS011;13578;53.450;15.496;2023-11-19T06:38:47;32.33;;;20.25;;
25721;SDS011;13578;53.450;15.496;2023-11-19T06:41:48;35.90;;;20.55;;
25721;SDS011;13578;53.450;15.496;2023-11-19T06:44:49;34.30;;;19.55;;
25721;SDS011;13578;53.450;15.496;2023-11-19T06:47:49;32.25;;;18.13;;
25721;SDS011;13578;53.450;15.496;2023-11-19T06:50:50;28.95;;;19.15;;
25721;SDS011;13578;53.450;15.496;2023-11-19T06:53:52;33.33;;;18.50;;
25721;SDS011;13578;53.450;15.496;2023-11-19T06:56:53;36.92;;;18.83;;
25721;SDS011;13578;53.450;15.496;2023-11-19T06:59:54;28.98;;;17.85;;
25721;SDS011;13578;53.450;15.496;2023-11-19T07:02:55;33.50;;;16.95;;
25721;SDS011;13578;53.450;15.496;2023-11-19T07:05:55;33.50;;;17.63;;
25721;SDS011;13578;53.450;15.496;2023-11-19T07:08:56;26.83;;;17.33;;
25721;SDS011;13578;53.450;15.496;2023-11-19T07:11:57;30.38;;;18.05;;
25721;SDS011;13578;53.450;15.496;2023-11-19T07:15:00;22.25;;;14.98;;
25721;SDS011;13578;53.450;15.496;2023-11-19T07:18:02;27.67;;;16.13;;
25721;SDS011;13578;53.450;15.496;2023-11-19T07:21:03;26.77;;;16.70;;
25721;SDS011;13578;53.450;15.496;2023-11-19T07:24:05;29.10;;;16.58;;
25721;SDS011;13578;53.450;15.496;2023-11-19T07:27:06;23.33;;;15.65;;
25721;SDS011;13578;53.450;15.496;2023-11-19T07:30:08;26.02;;;16.35;;
25721;SDS011;13578;53.450;15.496;2023-11-19T07:33:09;21.70;;;15.23;;
25721;SDS011;13578;53.450;15.496;2023-11-19T07:36:10;24.33;;;15.02;;
25721;SDS011;13578;53.450;15.496;2023-11-19T07:39:11;25.20;;;15.70;;
25721;SDS011;13578;53.450;15.496;2023-11-19T07:42:11;25.50;;;15.07;;
25721;SDS011;13578;53.450;15.496;2023-11-19T07:45:12;20.73;;;15.40;;
25721;SDS011;13578;53.450;15.496;2023-11-19T07:48:13;32.20;;;16.25;;
25721;SDS011;13578;53.450;15.496;2023-11-19T07:51:15;23.75;;;15.43;;
25721;SDS011;13578;53.450;15.496;2023-11-19T07:54:16;22.80;;;15.23;;
25721;SDS011;13578;53.450;15.496;2023-11-19T07:57:17;19.35;;;14.85;;
25721;SDS011;13578;53.450;15.496;2023-11-19T08:00:17;22.35;;;13.80;;
25721;SDS011;13578;53.450;15.496;2023-11-19T08:03:19;21.23;;;13.88;;
25721;SDS011;13578;53.450;15.496;2023-11-19T08:06:22;25.40;;;15.57;;
25721;SDS011;13578;53.450;15.496;2023-11-19T08:09:22;22.27;;;14.65;;
25721;SDS011;13578;53.450;15.496;2023-11-19T08:12:23;24.00;;;15.18;;
25721;SDS011;13578;53.450;15.496;2023-11-19T08:15:24;20.48;;;13.80;;
25721;SDS011;13578;53.450;15.496;2023-11-19T08:18:24;22.13;;;14.25;;
25721;SDS011;13578;53.450;15.496;2023-11-19T08:21:25;18.33;;;12.68;;
25721;SDS011;13578;53.450;15.496;2023-11-19T08:24:27;18.73;;;14.10;;
25721;SDS011;13578;53.450;15.496;2023-11-19T08:27:28;21.08;;;13.68;;
25721;SDS011;13578;53.450;15.496;2023-11-19T08:30:29;18.40;;;12.93;;
25721;SDS011;13578;53.450;15.496;2023-11-19T08:33:30;19.95;;;13.55;;
25721;SDS011;13578;53.450;15.496;2023-11-19T08:36:31;19.35;;;12.93;;
25721;SDS011;13578;53.450;15.496;2023-11-19T08:39:32;22.40;;;14.43;;
25721;SDS011;13578;53.450;15.496;2023-11-19T08:42:32;17.48;;;12.75;;
25721;SDS011;13578;53.450;15.496;2023-11-19T08:45:33;20.60;;;13.40;;
25721;SDS011;13578;53.450;15.496;2023-11-19T08:48:34;18.88;;;13.07;;
25721;SDS011;13578;53.450;15.496;2023-11-19T08:51:34;20.40;;;12.85;;
25721;SDS011;13578;53.450;15.496;2023-11-19T08:54:35;23.60;;;12.88;;
25721;SDS011;13578;53.450;15.496;2023-11-19T08:57:36;28.90;;;13.48;;
25721;SDS011;13578;53.450;15.496;2023-11-19T09:00:37;23.17;;;13.15;;
25721;SDS011;13578;53.450;15.496;2023-11-19T09:03:37;16.98;;;11.82;;
25721;SDS011;13578;53.450;15.496;2023-11-19T09:06:38;21.58;;;13.20;;
25721;SDS011;13578;53.450;15.496;2023-11-19T09:09:40;18.58;;;13.02;;
25721;SDS011;13578;53.450;15.496;2023-11-19T09:12:41;22.85;;;13.15;;
25721;SDS011;13578;53.450;15.496;2023-11-19T09:15:41;15.40;;;11.45;;
25721;SDS011;13578;53.450;15.496;2023-11-19T09:18:42;18.00;;;12.65;;
25721;SDS011;13578;53.450;15.496;2023-11-19T09:21:43;15.80;;;11.13;;
25721;SDS011;13578;53.450;15.496;2023-11-19T09:24:43;18.13;;;11.90;;
25721;SDS011;13578;53.450;15.496;2023-11-19T09:27:44;16.48;;;11.70;;
25721;SDS011;13578;53.450;15.496;2023-11-19T09:30:45;16.15;;;11.70;;
25721;SDS011;13578;53.450;15.496;2023-11-19T09:33:46;17.58;;;11.95;;
25721;SDS011;13578;53.450;15.496;2023-11-19T09:36:46;15.85;;;11.25;;
25721;SDS011;13578;53.450;15.496;2023-11-19T09:39:47;14.23;;;11.05;;
25721;SDS011;13578;53.450;15.496;2023-11-19T09:42:48;14.00;;;10.57;;
25721;SDS011;13578;53.450;15.496;2023-11-19T09:45:49;14.18;;;10.80;;
25721;SDS011;13578;53.450;15.496;2023-11-19T09:48:52;12.43;;;9.70;;
25721;SDS011;13578;53.450;15.496;2023-11-19T09:51:56;16.50;;;10.05;;
25721;SDS011;13578;53.450;15.496;2023-11-19T09:54:59;14.25;;;9.80;;
25721;SDS011;13578;53.450;15.496;2023-11-19T09:58:00;12.80;;;9.95;;
25721;SDS011;13578;53.450;15.496;2023-11-19T10:01:01;12.50;;;9.57;;
25721;SDS011;13578;53.450;15.496;2023-11-19T10:04:11;11.73;;;9.50;;
25721;SDS011;13578;53.450;15.496;2023-11-19T10:07:15;11.15;;;8.65;;
25721;SDS011;13578;53.450;15.496;2023-11-19T10:10:16;15.02;;;9.90;;
25721;SDS011;13578;53.450;15.496;2023-11-19T10:13:19;11.15;;;8.65;;
25721;SDS011;13578;53.450;15.496;2023-11-19T10:16:19;15.95;;;9.95;;
25721;SDS011;13578;53.450;15.496;2023-11-19T10:19:20;14.70;;;10.10;;
25721;SDS011;13578;53.450;15.496;2023-11-19T10:22:22;13.95;;;9.35;;
25721;SDS011;13578;53.450;15.496;2023-11-19T10:25:25;11.70;;;9.15;;
25721;SDS011;13578;53.450;15.496;2023-11-19T10:28:27;10.57;;;8.75;;
25721;SDS011;13578;53.450;15.496;2023-11-19T10:31:27;9.57;;;8.05;;
25721;SDS011;13578;53.450;15.496;2023-11-19T10:34:28;9.73;;;8.45;;
25721;SDS011;13578;53.450;15.496;2023-11-19T10:37:30;10.25;;;8.25;;
25721;SDS011;13578;53.450;15.496;2023-11-19T10:40:38;10.25;;;8.15;;
25721;SDS011;13578;53.450;15.496;2023-11-19T10:43:43;9.48;;;8.30;;
25721;SDS011;13578;53.450;15.496;2023-11-19T10:46:47;9.30;;;7.82;;
25721;SDS011;13578;53.450;15.496;2023-11-19T10:49:48;10.93;;;8.98;;
25721;SDS011;13578;53.450;15.496;2023-11-19T10:52:50;11.48;;;7.28;;
25721;SDS011;13578;53.450;15.496;2023-11-19T10:55:56;10.90;;;8.65;;
25721;SDS011;13578;53.450;15.496;2023-11-19T10:59:00;9.45;;;7.70;;
25721;SDS011;13578;53.450;15.496;2023-11-19T11:02:03;9.88;;;7.97;;
25721;SDS011;13578;53.450;15.496;2023-11-19T11:05:09;13.68;;;8.27;;
25721;SDS011;13578;53.450;15.496;2023-11-19T11:08:13;9.68;;;7.15;;
25721;SDS011;13578;53.450;15.496;2023-11-19T11:11:15;11.57;;;7.18;;
25721;SDS011;13578;53.450;15.496;2023-11-19T11:14:23;8.52;;;7.60;;
25721;SDS011;13578;53.450;15.496;2023-11-19T11:17:26;11.50;;;8.98;;
25721;SDS011;13578;53.450;15.496;2023-11-19T11:20:29;11.10;;;7.80;;
25721;SDS011;13578;53.450;15.496;2023-11-19T11:23:52;10.38;;;7.57;;
25721;SDS011;13578;53.450;15.496;2023-11-19T11:34:03;11.55;;;7.88;;
25721;SDS011;13578;53.450;15.496;2023-11-19T11:37:32;9.80;;;7.40;;
25721;SDS011;13578;53.450;15.496;2023-11-19T11:40:37;12.38;;;7.97;;
25721;SDS011;13578;53.450;15.496;2023-11-19T11:46:55;7.82;;;6.90;;
25721;SDS011;13578;53.450;15.496;2023-11-19T11:49:56;8.90;;;7.10;;
25721;SDS011;13578;53.450;15.496;2023-11-19T11:56:06;7.63;;;6.70;;
25721;SDS011;13578;53.450;15.496;2023-11-19T11:59:20;10.88;;;7.57;;
25721;SDS011;13578;53.450;15.496;2023-11-19T12:02:21;7.45;;;6.75;;
25721;SDS011;13578;53.450;15.496;2023-11-19T12:05:22;8.10;;;7.30;;
25721;SDS011;13578;53.450;15.496;2023-11-19T12:08:27;9.00;;;7.13;;
25721;SDS011;13578;53.450;15.496;2023-11-19T12:11:30;7.15;;;6.30;;
25721;SDS011;13578;53.450;15.496;2023-11-19T12:18:14;6.68;;;5.97;;
25721;SDS011;13578;53.450;15.496;2023-11-19T12:21:29;7.47;;;6.43;;
25721;SDS011;13578;53.450;15.496;2023-11-19T12:24:31;7.25;;;6.07;;
25721;SDS011;13578;53.450;15.496;2023-11-19T12:27:32;6.53;;;5.88;;
25721;SDS011;13578;53.450;15.496;2023-11-19T12:30:36;6.30;;;5.72;;
25721;SDS011;13578;53.450;15.496;2023-11-19T12:33:36;10.23;;;5.93;;
25721;SDS011;13578;53.450;15.496;2023-11-19T12:36:38;6.20;;;5.70;;
25721;SDS011;13578;53.450;15.496;2023-11-19T12:39:38;7.13;;;6.13;;
25721;SDS011;13578;53.450;15.496;2023-11-19T12:42:40;6.20;;;5.63;;
25721;SDS011;13578;53.450;15.496;2023-11-19T12:45:41;5.28;;;4.78;;
25721;SDS011;13578;53.450;15.496;2023-11-19T12:48:42;6.32;;;5.72;;
25721;SDS011;13578;53.450;15.496;2023-11-19T12:51:42;5.95;;;5.45;;
25721;SDS011;13578;53.450;15.496;2023-11-19T12:54:43;5.63;;;5.10;;
25721;SDS011;13578;53.450;15.496;2023-11-19T12:57:43;6.47;;;5.88;;
25721;SDS011;13578;53.450;15.496;2023-11-19T13:00:44;6.47;;;5.75;;
25721;SDS011;13578;53.450;15.496;2023-11-19T13:03:45;6.07;;;5.47;;
25721;SDS011;13578;53.450;15.496;2023-11-19T13:06:46;5.93;;;5.30;;
25721;SDS011;13578;53.450;15.496;2023-11-19T13:09:50;6.18;;;5.57;;
25721;SDS011;13578;53.450;15.496;2023-11-19T13:13:27;7.05;;;5.70;;
25721;SDS011;13578;53.450;15.496;2023-11-19T13:16:21;5.85;;;5.25;;
25721;SDS011;13578;53.450;15.496;2023-11-19T13:19:22;6.40;;;5.80;;
25721;SDS011;13578;53.450;15.496;2023-11-19T13:22:24;9.55;;;5.75;;
25721;SDS011;13578;53.450;15.496;2023-11-19T13:25:24;6.03;;;5.45;;
25721;SDS011;13578;53.450;15.496;2023-11-19T13:28:26;7.20;;;6.22;;
25721;SDS011;13578;53.450;15.496;2023-11-19T13:31:27;6.65;;;6.03;;
25721;SDS011;13578;53.450;15.496;2023-11-19T13:34:28;6.38;;;5.80;;
25721;SDS011;13578;53.450;15.496;2023-11-19T13:37:28;6.57;;;5.75;;
25721;SDS011;13578;53.450;15.496;2023-11-19T13:40:29;7.13;;;5.63;;
25721;SDS011;13578;53.450;15.496;2023-11-19T13:43:30;7.13;;;5.97;;
25721;SDS011;13578;53.450;15.496;2023-11-19T13:46:30;6.45;;;5.47;;
25721;SDS011;13578;53.450;15.496;2023-11-19T13:49:31;6.88;;;5.00;;
25721;SDS011;13578;53.450;15.496;2023-11-19T13:52:32;6.30;;;5.50;;
25721;SDS011;13578;53.450;15.496;2023-11-19T13:55:33;5.82;;;4.78;;
25721;SDS011;13578;53.450;15.496;2023-11-19T13:58:33;7.78;;;5.20;;
25721;SDS011;13578;53.450;15.496;2023-11-19T14:01:35;6.00;;;5.28;;
25721;SDS011;13578;53.450;15.496;2023-11-19T14:04:35;6.15;;;5.50;;
25721;SDS011;13578;53.450;15.496;2023-11-19T14:07:36;5.63;;;4.90;;
25721;SDS011;13578;53.450;15.496;2023-11-19T14:10:38;5.45;;;4.85;;
25721;SDS011;13578;53.450;15.496;2023-11-19T14:13:41;5.88;;;5.38;;
25721;SDS011;13578;53.450;15.496;2023-11-19T14:16:41;5.63;;;5.13;;
25721;SDS011;13578;53.450;15.496;2023-11-19T14:19:42;7.85;;;5.32;;
25721;SDS011;13578;53.450;15.496;2023-11-19T14:22:44;5.97;;;4.88;;
25721;SDS011;13578;53.450;15.496;2023-11-19T14:25:48;5.35;;;4.88;;
25721;SDS011;13578;53.450;15.496;2023-11-19T14:28:49;6.78;;;5.35;;
25721;SDS011;13578;53.450;15.496;2023-11-19T14:31:50;9.00;;;5.72;;
25721;SDS011;13578;53.450;15.496;2023-11-19T14:34:51;6.18;;;5.65;;
25721;SDS011;13578;53.450;15.496;2023-11-19T14:37:51;6.07;;;5.20;;
25721;SDS011;13578;53.450;15.496;2023-11-19T14:40:53;10.48;;;4.97;;
25721;SDS011;13578;53.450;15.496;2023-11-19T14:43:54;6.35;;;5.70;;
25721;SDS011;13578;53.450;15.496;2023-11-19T14:46:55;5.40;;;4.90;;
25721;SDS011;13578;53.450;15.496;2023-11-19T14:49:56;5.57;;;4.88;;
25721;SDS011;13578;53.450;15.496;2023-11-19T14:52:56;6.00;;;4.88;;
25721;SDS011;13578;53.450;15.496;2023-11-19T14:55:57;5.00;;;4.50;;
25721;SDS011;13578;53.450;15.496;2023-11-19T14:58:58;5.07;;;4.63;;
25721;SDS011;13578;53.450;15.496;2023-11-19T15:01:58;5.55;;;4.75;;
25721;SDS011;13578;53.450;15.496;2023-11-19T15:05:00;5.85;;;5.25;;
25721;SDS011;13578;53.450;15.496;2023-11-19T15:08:01;5.13;;;4.63;;
25721;SDS011;13578;53.450;15.496;2023-11-19T15:11:03;4.85;;;4.45;;
25721;SDS011;13578;53.450;15.496;2023-11-19T15:14:06;6.28;;;5.63;;
25721;SDS011;13578;53.450;15.496;2023-11-19T15:17:07;9.18;;;5.22;;
25721;SDS011;13578;53.450;15.496;2023-11-19T15:20:08;4.88;;;4.43;;
25721;SDS011;13578;53.450;15.496;2023-11-19T15:23:09;4.65;;;4.15;;
25721;SDS011;13578;53.450;15.496;2023-11-19T15:26:10;7.28;;;5.55;;
25721;SDS011;13578;53.450;15.496;2023-11-19T15:29:10;6.28;;;5.53;;
25721;SDS011;13578;53.450;15.496;2023-11-19T15:32:12;7.68;;;5.40;;
25721;SDS011;13578;53.450;15.496;2023-11-19T15:35:12;8.48;;;5.95;;
25721;SDS011;13578;53.450;15.496;2023-11-19T15:38:13;10.25;;;5.85;;
25721;SDS011;13578;53.450;15.496;2023-11-19T15:41:13;5.85;;;5.22;;
25721;SDS011;13578;53.450;15.496;2023-11-19T15:44:14;6.93;;;5.88;;
25721;SDS011;13578;53.450;15.496;2023-11-19T15:47:15;7.47;;;5.70;;
25721;SDS011;13578;53.450;15.496;2023-11-19T15:50:16;7.35;;;5.45;;
25721;SDS011;13578;53.450;15.496;2023-11-19T15:53:16;9.05;;;6.50;;
25721;SDS011;13578;53.450;15.496;2023-11-19T15:56:18;7.63;;;5.90;;
25721;SDS011;13578;53.450;15.496;2023-11-19T15:59:19;6.97;;;6.28;;
25721;SDS011;13578;53.450;15.496;2023-11-19T16:02:21;10.75;;;6.97;;
25721;SDS011;13578;53.450;15.496;2023-11-19T16:05:22;10.23;;;5.85;;
25721;SDS011;13578;53.450;15.496;2023-11-19T16:08:23;8.35;;;7.38;;
25721;SDS011;13578;53.450;15.496;2023-11-19T16:11:24;9.75;;;7.07;;
25721;SDS011;13578;53.450;15.496;2023-11-19T16:14:25;12.48;;;7.90;;
25721;SDS011;13578;53.450;15.496;2023-11-19T16:17:25;13.35;;;8.63;;
25721;SDS011;13578;53.450;15.496;2023-11-19T16:20:29;15.93;;;9.15;;
25721;SDS011;13578;53.450;15.496;2023-11-19T16:23:31;19.27;;;11.18;;
25721;SDS011;13578;53.450;15.496;2023-11-19T16:26:32;19.08;;;11.02;;
25721;SDS011;13578;53.450;15.496;2023-11-19T16:29:32;17.40;;;9.82;;
25721;SDS011;13578;53.450;15.496;2023-11-19T16:32:35;14.73;;;10.65;;
25721;SDS011;13578;53.450;15.496;2023-11-19T16:35:49;29.85;;;10.88;;
25721;SDS011;13578;53.450;15.496;2023-11-19T16:38:49;26.45;;;11.68;;
25721;SDS011;13578;53.450;15.496;2023-11-19T16:41:51;18.88;;;9.90;;
25721;SDS011;13578;53.450;15.496;2023-11-19T16:44:52;25.42;;;10.60;;
25721;SDS011;13578;53.450;15.496;2023-11-19T16:47:52;20.83;;;10.18;;
25721;SDS011;13578;53.450;15.496;2023-11-19T16:50:53;18.55;;;10.65;;
25721;SDS011;13578;53.450;15.496;2023-11-19T16:53:53;20.30;;;10.10;;
25721;SDS011;13578;53.450;15.496;2023-11-19T16:56:54;28.83;;;10.73;;
25721;SDS011;13578;53.450;15.496;2023-11-19T16:59:54;17.10;;;10.68;;
25721;SDS011;13578;53.450;15.496;2023-11-19T17:02:56;32.55;;;10.73;;
25721;SDS011;13578;53.450;15.496;2023-11-19T17:06:00;29.75;;;11.73;;
25721;SDS011;13578;53.450;15.496;2023-11-19T17:09:01;21.75;;;10.82;;
25721;SDS011;13578;53.450;15.496;2023-11-19T17:12:02;34.65;;;10.82;;
25721;SDS011;13578;53.450;15.496;2023-11-19T17:15:03;20.25;;;11.05;;
25721;SDS011;13578;53.450;15.496;2023-11-19T17:18:04;23.98;;;11.20;;
25721;SDS011;13578;53.450;15.496;2023-11-19T17:21:05;20.25;;;12.23;;
25721;SDS011;13578;53.450;15.496;2023-11-19T17:24:06;22.08;;;10.73;;
25721;SDS011;13578;53.450;15.496;2023-11-19T17:27:06;19.70;;;10.75;;
25721;SDS011;13578;53.450;15.496;2023-11-19T17:30:07;23.58;;;11.48;;
25721;SDS011;13578;53.450;15.496;2023-11-19T17:33:09;23.33;;;10.30;;
25721;SDS011;13578;53.450;15.496;2023-11-19T17:36:09;18.30;;;10.57;;
25721;SDS011;13578;53.450;15.496;2023-11-19T17:39:10;28.90;;;11.27;;
25721;SDS011;13578;53.450;15.496;2023-11-19T17:42:11;72.13;;;13.60;;
25721;SDS011;13578;53.450;15.496;2023-11-19T17:45:12;24.70;;;11.30;;
25721;SDS011;13578;53.450;15.496;2023-11-19T17:48:14;33.97;;;11.38;;
25721;SDS011;13578;53.450;15.496;2023-11-19T17:51:15;48.65;;;14.10;;
25721;SDS011;13578;53.450;15.496;2023-11-19T17:54:17;56.08;;;12.95;;